createdAt,value
2022-08-03T00:00:26.506Z,95.92
2022-08-03T00:02:53.740Z,95.95
2022-08-03T00:05:20.964Z,95.86
2022-08-03T00:07:48.439Z,95.89
2022-08-03T00:10:16.959Z,95.97
2022-08-03T00:12:45.122Z,95.90
2022-08-03T00:15:16.450Z,95.82
2022-08-03T00:17:52.502Z,96.09
2022-08-03T00:20:20.325Z,96.14
2022-08-03T00:22:47.119Z,95.86
2022-08-03T00:25:14.003Z,95.99
2022-08-03T00:27:40.821Z,95.67
2022-08-03T00:30:10.458Z,96.25
2022-08-03T00:32:38.866Z,96.06
2022-08-03T00:35:18.236Z,96.02
2022-08-03T00:38:00.014Z,95.64
2022-08-03T00:40:26.954Z,95.79
2022-08-03T00:42:55.832Z,95.72
2022-08-03T00:45:25.752Z,95.62
2022-08-03T00:47:53.189Z,95.71
2022-08-03T00:50:23.079Z,95.69
2022-08-03T00:52:51.888Z,95.64
2022-08-03T00:55:19.280Z,95.23
2022-08-03T00:57:47.045Z,95.46
2022-08-03T01:00:18.054Z,95.27
2022-08-03T01:02:46.481Z,94.97
2022-08-03T01:05:13.939Z,95.21
2022-08-03T01:07:54.278Z,95.13
2022-08-03T01:10:28.657Z,95.65
2022-08-03T01:13:05.988Z,95.43
2022-08-03T01:15:46.571Z,95.46
2022-08-03T01:18:20.013Z,95.76
2022-08-03T01:20:53.551Z,95.90
2022-08-03T01:23:35.957Z,96.04
2022-08-03T01:26:28.157Z,96.04
2022-08-03T01:29:03.723Z,96.47
2022-08-03T01:32:59.231Z,96.34
2022-08-03T01:34:32.768Z,96.41
2022-08-03T01:37:03.138Z,96.36
2022-08-03T01:39:33.103Z,96.52
2022-08-03T01:42:06.287Z,96.34
2022-08-03T01:44:38.489Z,96.35
2022-08-03T01:47:08.740Z,96.50
2022-08-03T01:49:40.223Z,96.53
2022-08-03T01:52:08.512Z,96.63
2022-08-03T01:54:37.916Z,96.44
2022-08-03T01:57:05.316Z,96.48
2022-08-03T01:59:36.314Z,96.46
2022-08-03T02:02:28.934Z,96.64
2022-08-03T02:04:56.917Z,96.67
2022-08-03T02:07:26.314Z,96.68
2022-08-03T02:09:55.722Z,97.10
2022-08-03T02:12:25.071Z,97.29
2022-08-03T02:14:53.910Z,97.23
2022-08-03T02:17:39.533Z,97.49
2022-08-03T02:20:11.824Z,97.45
2022-08-03T02:22:41.041Z,97.46
2022-08-03T02:25:09.279Z,97.64
2022-08-03T02:27:41.825Z,97.83
2022-08-03T02:30:12.581Z,97.66
2022-08-03T02:32:42.627Z,97.91
2022-08-03T02:35:13.562Z,97.76
2022-08-03T02:37:44.976Z,97.77
2022-08-03T02:40:19.585Z,97.91
2022-08-03T02:42:48.824Z,97.96
2022-08-03T02:45:18.450Z,97.96
2022-08-03T02:47:52.193Z,98.11
2022-08-03T02:50:24.595Z,98.13
2022-08-03T02:52:52.760Z,98.19
2022-08-03T02:55:22.138Z,98.24
2022-08-03T02:57:50.335Z,98.27
2022-08-03T03:00:19.402Z,98.12
2022-08-03T03:02:57.521Z,98.44
2022-08-03T03:05:52.213Z,98.39
2022-08-03T03:08:17.744Z,98.59
2022-08-03T03:10:46.655Z,98.67
2022-08-03T03:13:15.848Z,98.76
2022-08-03T03:15:43.701Z,98.72
2022-08-03T03:18:12.033Z,98.46
2022-08-03T03:20:41.017Z,98.49
2022-08-03T03:23:09.749Z,98.50
2022-08-03T03:25:37.086Z,98.40
2022-08-03T03:28:06.403Z,98.34
2022-08-03T03:30:34.291Z,98.17
2022-08-03T03:33:01.211Z,98.18
2022-08-03T03:35:28.535Z,97.86
2022-08-03T03:37:57.178Z,98.20
2022-08-03T03:40:24.295Z,97.96
2022-08-03T03:42:51.387Z,98.15
2022-08-03T03:45:19.645Z,97.88
2022-08-03T03:47:46.693Z,98.07
2022-08-03T03:50:15.892Z,98.26
2022-08-03T03:52:42.874Z,98.10
2022-08-03T03:55:16.364Z,98.10
2022-08-03T03:57:43.362Z,98.01
2022-08-03T04:00:11.712Z,97.75
2022-08-03T04:02:39.318Z,97.67
2022-08-03T04:05:27.406Z,97.80
2022-08-03T04:08:17.793Z,97.72
2022-08-03T04:11:00.131Z,97.54
2022-08-03T04:13:31.044Z,97.65
2022-08-03T04:15:59.301Z,97.52
2022-08-03T04:18:29.769Z,97.72
2022-08-03T04:21:00.893Z,97.45
2022-08-03T04:23:29.557Z,97.60
2022-08-03T04:25:59.398Z,97.56
2022-08-03T04:28:30.386Z,97.88
2022-08-03T04:31:00.113Z,97.67
2022-08-03T04:33:30.307Z,97.58
2022-08-03T04:36:01.604Z,97.47
2022-08-03T04:38:31.901Z,97.58
2022-08-03T04:41:01.975Z,97.53
2022-08-03T04:43:31.785Z,97.68
2022-08-03T04:46:00.224Z,97.64
2022-08-03T04:48:28.112Z,97.34
2022-08-03T04:50:55.180Z,97.34
2022-08-03T04:53:22.560Z,97.17
2022-08-03T04:55:50.378Z,96.86
2022-08-03T04:58:18.627Z,96.89
2022-08-03T05:00:45.763Z,97.00
2022-08-03T05:03:20.536Z,96.76
2022-08-03T05:05:51.573Z,96.88
2022-08-03T05:08:20.328Z,96.83
2022-08-03T05:10:49.692Z,96.56
2022-08-03T05:13:18.004Z,96.60
2022-08-03T05:15:44.930Z,96.67
2022-08-03T05:18:14.091Z,96.59
2022-08-03T05:20:41.303Z,96.31
2022-08-03T05:23:08.152Z,96.32
2022-08-03T05:25:35.073Z,96.13
2022-08-03T05:28:02.064Z,96.01
2022-08-03T05:30:34.089Z,95.92
2022-08-03T05:33:02.740Z,95.88
2022-08-03T05:36:00.745Z,95.83
2022-08-03T05:38:23.897Z,95.59
2022-08-03T05:41:20.182Z,95.44
2022-08-03T05:43:48.188Z,95.27
2022-08-03T05:46:16.444Z,95.35
2022-08-03T05:48:43.685Z,95.14
2022-08-03T05:51:14.092Z,95.02
2022-08-03T05:53:41.915Z,94.57
2022-08-03T05:56:14.374Z,94.67
2022-08-03T05:58:43.100Z,94.92
2022-08-03T06:01:09.970Z,94.41
2022-08-03T06:03:38.263Z,94.32
2022-08-03T06:06:05.195Z,94.32
2022-08-03T06:08:32.108Z,93.94
2022-08-03T06:10:59.012Z,93.79
2022-08-03T06:13:25.857Z,93.63
2022-08-03T06:15:52.663Z,93.79
2022-08-03T06:18:19.575Z,93.59
2022-08-03T06:20:49.500Z,93.29
2022-08-03T06:23:18.013Z,92.35
2022-08-03T06:25:45.784Z,92.28
2022-08-03T06:28:42.431Z,91.72
2022-08-03T06:31:01.362Z,90.97
2022-08-03T06:33:48.359Z,90.55
2022-08-03T06:36:16.291Z,90.19
2022-08-03T06:38:43.165Z,89.63
2022-08-03T06:41:10.274Z,89.54
2022-08-03T06:43:38.103Z,88.71
2022-08-03T06:46:24.533Z,88.52
2022-08-03T06:48:53.026Z,88.05
2022-08-03T06:51:21.361Z,87.88
2022-08-03T06:54:08.228Z,87.55
2022-08-03T06:56:35.065Z,87.31
2022-08-03T06:59:01.939Z,87.39
2022-08-03T07:01:28.966Z,87.68
2022-08-03T07:03:56.443Z,88.15
2022-08-03T07:06:24.835Z,87.25
2022-08-03T07:08:54.487Z,87.23
2022-08-03T07:11:23.490Z,85.85
2022-08-03T07:13:50.394Z,85.91
2022-08-03T07:16:17.204Z,85.87
2022-08-03T07:18:44.613Z,86.29
2022-08-03T07:21:12.796Z,85.96
2022-08-03T07:23:41.220Z,85.42
2022-08-03T07:26:08.048Z,84.83
2022-08-03T07:28:35.137Z,83.31
2022-08-03T07:31:01.938Z,84.27
2022-08-03T07:33:28.834Z,84.78
2022-08-03T07:35:55.642Z,84.62
2022-08-03T07:38:22.522Z,84.88
2022-08-03T07:40:50.867Z,84.38
2022-08-03T07:43:17.842Z,83.61
2022-08-03T07:45:44.809Z,83.63
2022-08-03T07:48:12.621Z,82.81
2022-08-03T07:50:39.777Z,82.69
2022-08-03T07:53:06.678Z,80.53
2022-08-03T07:55:33.761Z,80.20
2022-08-03T07:58:09.427Z,79.89
2022-08-03T08:00:36.773Z,77.87
2022-08-03T08:03:04.865Z,76.79
2022-08-03T08:05:31.981Z,77.86
2022-08-03T08:07:59.012Z,78.62
2022-08-03T08:10:26.055Z,75.50
2022-08-03T08:12:53.508Z,74.46
2022-08-03T08:15:21.989Z,71.62
2022-08-03T08:17:50.437Z,68.95
2022-08-03T08:20:27.070Z,67.41
2022-08-03T08:22:57.132Z,65.38
2022-08-03T08:25:25.171Z,66.78
2022-08-03T08:28:29.371Z,64.49
2022-08-03T08:30:41.034Z,62.45
2022-08-03T08:33:08.684Z,61.91
2022-08-03T08:35:48.986Z,61.81
2022-08-03T08:38:15.780Z,61.64
2022-08-03T08:40:42.924Z,61.52
2022-08-03T08:43:10.026Z,64.67
2022-08-03T08:45:37.736Z,65.42
2022-08-03T08:48:08.435Z,65.56
2022-08-03T08:50:38.849Z,63.67
2022-08-03T08:53:10.724Z,61.41
2022-08-03T08:55:58.378Z,61.60
2022-08-03T08:58:29.780Z,62.00
2022-08-03T09:00:57.178Z,61.16
2022-08-03T09:03:29.658Z,61.66
2022-08-03T09:05:59.777Z,59.76
2022-08-03T09:08:26.700Z,58.56
2022-08-03T09:10:53.530Z,59.75
2022-08-03T09:13:20.409Z,59.39
2022-08-03T09:16:00.682Z,59.75
2022-08-03T09:18:32.192Z,63.63
2022-08-03T09:21:30.056Z,63.92
2022-08-03T09:24:03.928Z,64.46
2022-08-03T09:26:34.330Z,66.34
2022-08-03T09:29:05.923Z,66.68
2022-08-03T09:31:35.211Z,65.30
2022-08-03T09:34:05.534Z,62.05
2022-08-03T09:36:40.851Z,60.21
2022-08-03T09:39:11.196Z,58.18
2022-08-03T09:41:39.537Z,55.29
2022-08-03T09:44:06.671Z,56.25
2022-08-03T09:46:49.952Z,56.68
2022-08-03T09:49:18.706Z,56.46
2022-08-03T09:52:31.919Z,56.39
2022-08-03T09:54:33.126Z,61.99
2022-08-03T09:57:00.200Z,61.78
2022-08-03T09:59:28.674Z,59.97
2022-08-03T10:01:56.300Z,56.28
2022-08-03T10:04:27.660Z,56.33
2022-08-03T10:07:06.393Z,57.63
2022-08-03T10:09:33.327Z,59.68
2022-08-03T10:12:07.982Z,61.60
2022-08-03T10:14:37.818Z,58.88
2022-08-03T10:17:05.384Z,57.73
2022-08-03T10:19:35.278Z,55.98
2022-08-03T10:22:04.957Z,54.28
2022-08-03T10:24:35.425Z,55.35
2022-08-03T10:27:04.485Z,57.89
2022-08-03T10:29:37.171Z,53.36
2022-08-03T10:32:08.032Z,51.69
2022-08-03T10:34:44.418Z,50.16
2022-08-03T10:37:12.857Z,49.24
2022-08-03T10:39:53.460Z,48.63
2022-08-03T10:42:27.156Z,48.96
2022-08-03T10:45:03.305Z,49.14
2022-08-03T10:47:31.463Z,51.67
2022-08-03T10:50:01.195Z,51.29
2022-08-03T10:52:31.731Z,50.21
2022-08-03T10:55:22.023Z,49.22
2022-08-03T10:57:56.070Z,50.44
2022-08-03T11:00:27.461Z,48.55
2022-08-03T11:03:11.290Z,47.08
2022-08-03T11:05:41.921Z,50.03
2022-08-03T11:08:19.713Z,48.95
2022-08-03T11:10:46.818Z,51.25
2022-08-03T11:13:16.888Z,49.93
2022-08-03T11:15:46.675Z,49.23
2022-08-03T11:18:14.255Z,49.49
2022-08-03T11:20:47.776Z,49.19
2022-08-03T11:23:15.767Z,48.72
2022-08-03T11:26:16.143Z,48.03
2022-08-03T11:28:44.841Z,49.84
2022-08-03T11:31:49.463Z,48.75
2022-08-03T11:34:17.576Z,46.59
2022-08-03T11:37:26.379Z,45.35
2022-08-03T11:39:57.039Z,44.22
2022-08-03T11:42:45.249Z,47.54
2022-08-03T11:45:12.717Z,46.34
2022-08-03T11:47:51.161Z,47.80
2022-08-03T11:50:20.093Z,48.25
2022-08-03T11:52:49.196Z,47.91
2022-08-03T11:55:22.013Z,48.04
2022-08-03T11:59:18.813Z,48.58
2022-08-03T12:00:36.668Z,50.42
2022-08-03T12:03:06.505Z,51.26
2022-08-03T12:05:42.086Z,48.23
2022-08-03T12:08:31.346Z,50.02
2022-08-03T12:11:00.435Z,49.92
2022-08-03T12:14:35.672Z,49.28
2022-08-03T12:16:24.392Z,46.89
2022-08-03T12:18:55.594Z,47.30
2022-08-03T12:21:24.764Z,48.35
2022-08-03T12:23:56.914Z,46.55
2022-08-03T12:26:23.768Z,46.18
2022-08-03T12:28:50.696Z,48.07
2022-08-03T12:31:17.712Z,47.80
2022-08-03T12:33:59.981Z,46.31
2022-08-03T12:36:29.806Z,48.00
2022-08-03T12:39:00.433Z,46.33
2022-08-03T12:41:29.680Z,47.70
2022-08-03T12:43:56.827Z,46.05
2022-08-03T12:46:29.207Z,49.01
2022-08-03T12:49:04.890Z,47.87
2022-08-03T12:51:33.707Z,51.25
2022-08-03T12:54:02.106Z,52.65
2022-08-03T12:56:29.155Z,49.91
2022-08-03T12:58:56.284Z,49.54
2022-08-03T13:01:24.559Z,46.39
2022-08-03T13:03:53.847Z,46.56
2022-08-03T13:06:22.695Z,48.67
2022-08-03T13:08:51.327Z,49.66
2022-08-03T13:11:55.724Z,46.49
2022-08-03T13:14:16.692Z,48.20
2022-08-03T13:16:47.474Z,47.12
2022-08-03T13:19:15.486Z,46.81
2022-08-03T13:22:02.195Z,46.37
2022-08-03T13:24:30.447Z,47.14
2022-08-03T13:27:00.099Z,48.80
2022-08-03T13:29:26.931Z,49.43
2022-08-03T13:31:54.059Z,47.86
2022-08-03T13:34:23.465Z,50.65
2022-08-03T13:37:08.293Z,50.27
2022-08-03T13:39:59.801Z,49.56
2022-08-03T13:42:24.636Z,49.56
2022-08-03T13:44:51.491Z,49.51
2022-08-03T13:47:20.140Z,47.92
2022-08-03T13:50:00.049Z,46.60
2022-08-03T13:52:29.529Z,52.40
2022-08-03T13:54:56.708Z,51.30
2022-08-03T13:58:06.450Z,50.25
2022-08-03T14:00:12.676Z,48.94
2022-08-03T14:02:44.317Z,48.35
2022-08-03T14:05:11.369Z,49.39
2022-08-03T14:07:38.197Z,49.26
2022-08-03T14:10:05.843Z,48.34
2022-08-03T14:12:35.212Z,50.80
2022-08-03T14:15:02.064Z,50.11
2022-08-03T14:17:42.015Z,47.98
2022-08-03T14:20:36.215Z,48.46
2022-08-03T14:23:02.978Z,46.27
2022-08-03T14:25:31.338Z,47.35
2022-08-03T14:28:11.411Z,48.49
2022-08-03T14:30:38.225Z,47.49
2022-08-03T14:33:05.088Z,49.52
2022-08-03T14:35:31.977Z,49.04
2022-08-03T14:37:58.823Z,48.85
2022-08-03T14:40:25.666Z,50.56
2022-08-03T14:42:52.513Z,50.66
2022-08-03T14:45:20.795Z,49.32
2022-08-03T14:50:30.726Z,48.85
2022-08-03T14:50:41.930Z,48.76
2022-08-03T14:53:11.258Z,50.03
2022-08-03T14:55:38.966Z,48.90
2022-08-03T14:58:20.599Z,51.08
2022-08-03T15:00:50.227Z,53.00
2022-08-03T15:03:20.623Z,50.61
2022-08-03T15:05:47.775Z,50.18
2022-08-03T15:08:14.630Z,46.98
2022-08-03T15:10:44.887Z,47.01
2022-08-03T15:13:12.709Z,48.23
2022-08-03T15:15:39.727Z,47.71
2022-08-03T15:18:08.620Z,47.54
2022-08-03T15:20:44.462Z,47.03
2022-08-03T15:23:13.040Z,46.39
2022-08-03T15:26:29.396Z,45.57
2022-08-03T15:28:26.846Z,45.63
2022-08-03T15:30:53.872Z,45.80
2022-08-03T15:33:22.147Z,44.73
2022-08-03T15:35:49.942Z,45.01
2022-08-03T15:38:16.957Z,43.53
2022-08-03T15:40:43.790Z,44.88
2022-08-03T15:43:10.858Z,42.04
2022-08-03T15:45:37.758Z,40.89
2022-08-03T15:48:05.334Z,40.57
2022-08-03T15:50:33.562Z,41.41
2022-08-03T15:53:00.607Z,40.82
2022-08-03T15:55:27.930Z,39.72
2022-08-03T15:59:10.363Z,40.51
2022-08-03T16:00:42.872Z,41.23
2022-08-03T16:03:09.958Z,40.41
2022-08-03T16:05:38.509Z,43.42
2022-08-03T16:08:09.062Z,47.66
2022-08-03T16:10:39.757Z,50.00
2022-08-03T16:13:06.793Z,51.73
2022-08-03T16:15:34.003Z,54.52
2022-08-03T16:18:05.780Z,56.94
2022-08-03T16:20:35.008Z,56.86
2022-08-03T16:23:10.319Z,58.65
2022-08-03T16:25:38.663Z,57.50
2022-08-03T16:28:07.820Z,57.19
2022-08-03T16:30:40.727Z,55.54
2022-08-03T16:33:07.643Z,57.41
2022-08-03T16:35:34.577Z,59.20
2022-08-03T16:38:02.836Z,60.39
2022-08-03T16:40:32.891Z,60.66
2022-08-03T16:42:59.772Z,61.72
2022-08-03T16:45:26.675Z,62.88
2022-08-03T16:48:01.650Z,64.04
2022-08-03T16:50:32.787Z,63.52
2022-08-03T16:52:59.743Z,63.23
2022-08-03T16:55:43.217Z,63.98
2022-08-03T16:58:17.941Z,64.76
2022-08-03T17:00:51.483Z,64.27
2022-08-03T17:03:24.099Z,64.76
2022-08-03T17:05:51.332Z,64.59
2022-08-03T17:08:26.462Z,64.90
2022-08-03T17:10:55.084Z,64.47
2022-08-03T17:13:39.441Z,65.00
2022-08-03T17:16:10.524Z,64.92
2022-08-03T17:18:42.181Z,65.59
2022-08-03T17:21:16.105Z,66.44
2022-08-03T17:23:52.142Z,66.63
2022-08-03T17:26:21.963Z,65.25
2022-08-03T17:28:58.019Z,65.87
2022-08-03T17:31:31.741Z,67.36
2022-08-03T17:34:01.369Z,65.79
2022-08-03T17:36:47.694Z,66.88
2022-08-03T17:39:16.605Z,65.81
2022-08-03T17:41:50.064Z,67.25
2022-08-03T17:44:35.234Z,66.88
2022-08-03T17:47:06.639Z,63.81
2022-08-03T17:49:40.036Z,63.86
2022-08-03T17:52:17.556Z,63.63
2022-08-03T17:55:55.496Z,63.58
2022-08-03T17:58:02.721Z,63.98
2022-08-03T18:00:52.137Z,63.54
2022-08-03T18:03:24.972Z,62.84
2022-08-03T18:06:11.859Z,63.96
2022-08-03T18:08:54.699Z,64.79
2022-08-03T18:11:35.379Z,65.24
2022-08-03T18:14:16.463Z,65.13
2022-08-03T18:16:50.109Z,65.81
2022-08-03T18:19:17.757Z,66.37
2022-08-03T18:22:03.001Z,66.20
2022-08-03T18:24:30.801Z,66.08
2022-08-03T18:26:59.441Z,65.96
2022-08-03T18:29:27.838Z,66.89
2022-08-03T18:32:03.069Z,66.80
2022-08-03T18:34:34.607Z,66.97
2022-08-03T18:37:07.507Z,67.27
2022-08-03T18:39:52.787Z,67.14
2022-08-03T18:42:25.904Z,67.54
2022-08-03T18:44:56.181Z,67.84
2022-08-03T18:47:52.442Z,68.31
2022-08-03T18:50:28.473Z,68.50
2022-08-03T18:53:16.195Z,71.82
2022-08-03T18:56:01.618Z,73.32
2022-08-03T18:58:35.467Z,74.82
2022-08-03T19:01:47.184Z,75.37
2022-08-03T19:04:09.038Z,76.38
2022-08-03T19:06:42.148Z,77.59
2022-08-03T19:09:17.398Z,77.30
2022-08-03T19:12:13.955Z,77.99
2022-08-03T19:14:41.568Z,79.00
2022-08-03T19:17:11.385Z,78.52
2022-08-03T19:19:44.114Z,79.02
2022-08-03T19:22:16.374Z,79.60
2022-08-03T19:24:45.677Z,79.29
2022-08-03T19:27:12.829Z,77.54
2022-08-03T19:30:00.440Z,79.34
2022-08-03T19:32:30.471Z,80.45
2022-08-03T19:35:00.651Z,81.20
2022-08-03T19:37:38.068Z,81.04
2022-08-03T19:40:10.943Z,79.82
2022-08-03T19:42:44.678Z,79.63
2022-08-03T19:45:20.947Z,80.27
2022-08-03T19:47:52.188Z,80.72
2022-08-03T19:50:20.890Z,79.85
2022-08-03T19:52:51.453Z,77.19
2022-08-03T19:55:18.797Z,76.84
2022-08-03T19:57:49.029Z,77.47
2022-08-03T20:00:19.683Z,76.93
2022-08-03T20:02:47.605Z,75.97
2022-08-03T20:05:20.086Z,76.53
2022-08-03T20:07:48.441Z,75.82
2022-08-03T20:10:16.993Z,75.92
2022-08-03T20:12:44.834Z,76.18
2022-08-03T20:15:12.183Z,76.35
2022-08-03T20:17:54.498Z,76.18
2022-08-03T20:20:27.752Z,76.21
2022-08-03T20:22:57.627Z,76.70
2022-08-03T20:28:29.278Z,77.11
2022-08-03T20:30:56.942Z,77.51
2022-08-03T20:33:27.986Z,77.35
2022-08-03T20:36:12.246Z,77.90
2022-08-03T20:38:46.879Z,78.05
2022-08-03T20:41:14.465Z,78.65
2022-08-03T20:43:42.027Z,79.06
2022-08-03T20:46:33.772Z,79.26
2022-08-03T20:48:58.951Z,79.62
2022-08-03T20:51:50.603Z,79.64
2022-08-03T20:54:22.991Z,80.32
2022-08-03T20:56:57.793Z,81.93
2022-08-03T20:59:29.890Z,82.82
2022-08-03T21:02:00.564Z,83.43
2022-08-03T21:04:28.766Z,83.73
2022-08-03T21:07:02.522Z,83.78
2022-08-03T21:09:42.289Z,83.88
2022-08-03T21:12:18.958Z,84.91
2022-08-03T21:13:06.786Z,76.88
2022-08-03T21:14:52.337Z,85.79
2022-08-03T21:17:39.202Z,85.29
2022-08-03T21:20:09.184Z,85.04
2022-08-03T21:22:39.243Z,84.49
2022-08-03T21:25:09.378Z,84.28
2022-08-03T21:27:37.467Z,84.23
2022-08-03T21:30:07.933Z,84.01
2022-08-03T21:32:36.519Z,84.04
2022-08-03T21:35:04.081Z,83.87
2022-08-03T21:37:30.895Z,84.50
2022-08-03T21:39:59.151Z,84.76
2022-08-03T21:42:26.130Z,85.57
2022-08-03T21:44:53.683Z,86.75
2022-08-03T21:47:22.964Z,87.11
2022-08-03T21:50:06.590Z,87.11
2022-08-03T21:52:41.256Z,87.11
2022-08-03T21:55:20.293Z,87.41
2022-08-03T21:57:53.514Z,88.03
2022-08-03T22:00:23.078Z,88.05
2022-08-03T22:02:54.771Z,88.35
2022-08-03T22:05:28.156Z,88.15
2022-08-03T22:08:09.491Z,87.80
2022-08-03T22:10:38.247Z,87.74
2022-08-03T22:13:05.098Z,87.57
2022-08-03T22:15:32.912Z,87.79
2022-08-03T22:18:03.674Z,87.72
2022-08-03T22:20:31.086Z,87.13
2022-08-03T22:23:01.983Z,86.88
2022-08-03T22:25:30.988Z,87.12
2022-08-03T22:28:01.833Z,87.18
2022-08-03T22:30:29.309Z,87.23
2022-08-03T22:32:57.700Z,87.43
2022-08-03T22:35:26.719Z,86.84
2022-08-03T22:37:55.406Z,86.43
2022-08-03T22:40:22.498Z,86.08
2022-08-03T22:42:51.344Z,86.22
2022-08-03T22:46:07.189Z,86.22
2022-08-03T22:48:08.590Z,86.24
2022-08-03T22:50:36.000Z,86.74
2022-08-03T22:53:03.437Z,86.26
2022-08-03T22:55:31.068Z,86.53
2022-08-03T22:57:57.898Z,86.77
2022-08-03T23:00:26.256Z,86.87
2022-08-03T23:02:56.913Z,86.39
2022-08-03T23:06:01.070Z,86.71
2022-08-03T23:08:15.270Z,87.39
2022-08-03T23:10:46.862Z,87.72
2022-08-03T23:13:16.485Z,87.68
2022-08-03T23:15:50.973Z,86.90
2022-08-03T23:18:21.452Z,86.47
2022-08-03T23:20:51.702Z,86.35
2022-08-03T23:23:19.921Z,86.92
2022-08-03T23:25:49.520Z,87.23
2022-08-03T23:28:17.400Z,87.55
2022-08-03T23:30:47.489Z,87.75
2022-08-03T23:33:16.461Z,87.68
2022-08-03T23:36:28.145Z,88.67
2022-08-03T23:38:46.025Z,89.93
2022-08-03T23:41:14.922Z,90.91
2022-08-03T23:43:52.127Z,91.12
2022-08-03T23:46:24.003Z,90.75
2022-08-03T23:48:51.470Z,90.98
2022-08-03T23:51:33.348Z,90.40
2022-08-03T23:54:03.877Z,90.34
2022-08-03T23:56:37.450Z,91.18
2022-08-03T23:59:12.978Z,90.72
